createdAt,value
2022-12-23T00:01:28.890Z,97725.06
2022-12-23T00:03:59.574Z,97720.31
2022-12-23T00:06:27.103Z,97721.66
2022-12-23T00:08:58.924Z,97723.38
2022-12-23T00:11:27.578Z,97720.78
2022-12-23T00:14:20.066Z,97728.59
2022-12-23T00:16:48.554Z,97719.09
2022-12-23T00:19:15.477Z,97715.53
2022-12-23T00:21:42.145Z,97711.91
2022-12-23T00:24:09.008Z,97728.25
2022-12-23T00:26:35.692Z,97719.75
2022-12-23T00:29:02.539Z,97714.72
2022-12-23T00:31:29.304Z,97706.22
2022-12-23T00:33:56.217Z,97709.69
2022-12-23T00:36:22.924Z,97706.16
2022-12-23T00:39:08.114Z,97705.81
2022-12-23T00:41:53.683Z,97703.69
2022-12-23T00:44:20.426Z,97694.56
2022-12-23T00:46:47.111Z,97702.47
2022-12-23T00:49:33.344Z,97687.78
2022-12-23T00:52:00.310Z,97685.97
2022-12-23T00:54:27.237Z,97694.03
2022-12-23T00:56:53.892Z,97677.22
2022-12-23T00:59:20.621Z,97685.50
2022-12-23T01:02:05.815Z,97680.97
2022-12-23T01:04:51.151Z,97680.78
2022-12-23T01:07:17.797Z,97677.03
2022-12-23T01:09:44.490Z,97672.06
2022-12-23T01:12:11.175Z,97673.00
2022-12-23T01:14:37.832Z,97659.34
2022-12-23T01:17:05.582Z,97669.13
2022-12-23T01:19:32.266Z,97665.16
2022-12-23T01:21:58.920Z,97655.22
2022-12-23T01:24:29.433Z,97656.72
2022-12-23T01:26:56.176Z,97651.66
2022-12-23T01:29:22.835Z,97644.44
2022-12-23T01:31:49.574Z,97635.31
2022-12-23T01:34:16.270Z,97640.19
2022-12-23T01:36:43.013Z,97627.22
2022-12-23T01:39:09.707Z,97637.94
2022-12-23T01:41:54.999Z,97639.28
2022-12-23T01:44:40.188Z,97642.97
2022-12-23T01:47:07.329Z,97637.06
2022-12-23T01:49:33.986Z,97631.16
2022-12-23T01:52:00.691Z,97627.75
2022-12-23T01:54:27.350Z,97620.44
2022-12-23T01:56:53.980Z,97616.91
2022-12-23T01:59:39.269Z,97617.59
2022-12-23T02:02:24.445Z,97611.41
2022-12-23T02:04:51.237Z,97612.00
2022-12-23T02:07:36.604Z,97605.97
2022-12-23T02:10:03.712Z,97602.66
2022-12-23T02:12:33.505Z,97600.87
2022-12-23T02:15:37.733Z,97598.09
2022-12-23T02:18:23.137Z,97591.19
2022-12-23T02:21:05.543Z,97590.63
2022-12-23T02:23:38.438Z,97594.84
2022-12-23T02:26:19.183Z,97596.28
2022-12-23T02:29:04.260Z,97589.34
2022-12-23T02:31:40.208Z,97589.62
2022-12-23T02:34:06.859Z,97584.69
2022-12-23T02:36:46.023Z,97575.06
2022-12-23T02:39:19.156Z,97570.00
2022-12-23T02:41:51.760Z,97586.16
2022-12-23T02:44:24.608Z,97601.97
2022-12-23T02:46:52.388Z,97635.53
2022-12-23T02:49:21.211Z,97651.94
2022-12-23T02:51:49.388Z,97641.69
2022-12-23T02:54:17.407Z,97633.28
2022-12-23T02:56:45.331Z,97621.13
2022-12-23T02:59:19.096Z,97617.47
2022-12-23T03:01:45.880Z,97610.91
2022-12-23T03:04:12.680Z,97605.00
2022-12-23T03:06:40.048Z,97597.34
2022-12-23T03:09:06.967Z,97594.09
2022-12-23T03:11:51.386Z,97587.84
2022-12-23T03:14:37.093Z,97589.56
2022-12-23T03:17:06.503Z,97597.38
2022-12-23T03:19:36.297Z,97595.09
2022-12-23T03:22:20.374Z,97601.13
2022-12-23T03:24:47.000Z,97598.91
2022-12-23T03:27:18.265Z,97599.28
2022-12-23T03:29:47.978Z,97597.97
2022-12-23T03:32:14.652Z,97589.25
2022-12-23T03:34:42.407Z,97588.53
2022-12-23T03:37:09.847Z,97582.63
2022-12-23T03:39:46.433Z,97579.22
2022-12-23T03:42:20.895Z,97574.72
2022-12-23T03:45:10.671Z,97579.63
2022-12-23T03:47:36.042Z,97575.69
2022-12-23T03:50:07.020Z,97579.31
2022-12-23T03:52:35.678Z,97576.22
2022-12-23T03:55:06.968Z,97575.31
2022-12-23T03:57:48.392Z,97571.19
2022-12-23T04:00:15.065Z,97580.72
2022-12-23T04:02:57.854Z,97585.50
2022-12-23T04:05:32.362Z,97582.03
2022-12-23T04:08:01.304Z,97579.41
2022-12-23T04:10:28.039Z,97585.63
2022-12-23T04:12:54.711Z,97594.06
2022-12-23T04:15:22.312Z,97595.06
2022-12-23T04:17:49.376Z,97587.53
2022-12-23T04:20:16.194Z,97573.34
2022-12-23T04:22:45.467Z,97576.44
2022-12-23T04:25:12.594Z,97571.72
2022-12-23T04:27:39.369Z,97572.31
2022-12-23T04:30:06.742Z,97581.56
2022-12-23T04:32:33.392Z,97577.19
2022-12-23T04:35:00.150Z,97582.91
2022-12-23T04:37:26.851Z,97566.41
2022-12-23T04:39:53.496Z,97572.59
2022-12-23T04:42:20.159Z,97580.75
2022-12-23T04:44:46.806Z,97568.88
2022-12-23T04:47:14.157Z,97567.31
2022-12-23T04:49:40.833Z,97562.56
2022-12-23T04:52:07.520Z,97568.44
2022-12-23T04:54:34.413Z,97561.63
2022-12-23T04:57:01.098Z,97561.56
2022-12-23T04:59:27.864Z,97559.34
2022-12-23T05:01:54.656Z,97552.16
2022-12-23T05:04:21.467Z,97555.19
2022-12-23T05:06:48.169Z,97550.97
2022-12-23T05:09:14.900Z,97530.78
2022-12-23T05:11:42.586Z,97534.50
2022-12-23T05:14:10.178Z,97521.31
2022-12-23T05:16:37.045Z,97514.19
2022-12-23T05:19:03.835Z,97502.88
2022-12-23T05:21:30.539Z,97509.28
2022-12-23T05:23:57.173Z,97510.53
2022-12-23T05:26:23.971Z,97518.06
2022-12-23T05:28:50.678Z,97527.88
2022-12-23T05:31:17.631Z,97530.28
2022-12-23T05:33:44.457Z,97541.91
2022-12-23T05:36:11.307Z,97552.38
2022-12-23T05:38:37.932Z,97568.00
2022-12-23T05:41:04.815Z,97567.69
2022-12-23T05:43:31.550Z,97564.28
2022-12-23T05:45:58.326Z,97566.47
2022-12-23T05:48:25.040Z,97571.53
2022-12-23T05:50:52.281Z,97561.87
2022-12-23T05:53:19.460Z,97555.94
2022-12-23T05:55:46.393Z,97556.44
2022-12-23T05:58:13.067Z,97550.22
2022-12-23T06:00:39.717Z,97549.13
2022-12-23T06:03:06.525Z,97549.78
2022-12-23T06:05:33.309Z,97551.03
2022-12-23T06:07:59.932Z,97546.09
2022-12-23T06:10:26.622Z,97550.50
2022-12-23T06:12:53.286Z,97543.34
2022-12-23T06:15:19.980Z,97549.16
2022-12-23T06:17:46.598Z,97535.75
2022-12-23T06:20:19.940Z,97539.84
2022-12-23T06:22:47.564Z,97541.19
2022-12-23T06:25:14.225Z,97541.84
2022-12-23T06:27:40.936Z,97551.97
2022-12-23T06:30:07.957Z,97548.13
2022-12-23T06:32:38.192Z,97544.78
2022-12-23T06:35:06.125Z,97542.72
2022-12-23T06:37:32.788Z,97545.94
2022-12-23T06:39:59.446Z,97553.91
2022-12-23T06:42:26.079Z,97557.78
2022-12-23T06:44:52.704Z,97551.12
2022-12-23T06:47:19.378Z,97564.22
2022-12-23T06:49:46.040Z,97560.53
2022-12-23T06:52:12.742Z,97557.69
2022-12-23T06:54:39.393Z,97568.31
2022-12-23T06:57:06.122Z,97556.50
2022-12-23T06:59:32.811Z,97554.16
2022-12-23T07:01:59.638Z,97569.22
2022-12-23T07:04:26.438Z,97563.59
2022-12-23T07:06:53.141Z,97561.72
2022-12-23T07:09:19.795Z,97560.13
2022-12-23T07:11:46.464Z,97559.25
2022-12-23T07:14:13.103Z,97562.97
2022-12-23T07:16:39.860Z,97562.63
2022-12-23T07:19:06.669Z,97556.00
2022-12-23T07:21:34.607Z,97552.97
2022-12-23T07:24:01.333Z,97549.91
2022-12-23T07:26:27.970Z,97552.59
2022-12-23T07:28:54.611Z,97532.28
2022-12-23T07:31:21.356Z,97527.50
2022-12-23T07:33:48.221Z,97528.34
2022-12-23T07:36:14.948Z,97535.50
2022-12-23T07:38:41.697Z,97543.41
2022-12-23T07:41:08.382Z,97546.22
2022-12-23T07:43:35.045Z,97541.00
2022-12-23T07:46:08.530Z,97535.47
2022-12-23T07:48:35.243Z,97544.44
2022-12-23T07:51:05.025Z,97541.25
2022-12-23T07:53:31.764Z,97546.78
2022-12-23T07:55:58.413Z,97546.22
2022-12-23T07:58:25.298Z,97549.41
2022-12-23T08:00:52.130Z,97542.13
2022-12-23T08:03:18.939Z,97552.25
2022-12-23T08:05:45.747Z,97545.59
2022-12-23T08:08:12.822Z,97539.37
2022-12-23T08:10:46.165Z,97538.97
2022-12-23T08:13:14.984Z,97531.66
2022-12-23T08:15:41.643Z,97544.81
2022-12-23T08:18:08.273Z,97548.94
2022-12-23T08:20:34.969Z,97547.59
2022-12-23T08:23:01.731Z,97543.19
2022-12-23T08:25:28.381Z,97543.62
2022-12-23T08:27:55.028Z,97549.09
2022-12-23T08:30:21.702Z,97540.72
2022-12-23T08:32:48.340Z,97534.28
2022-12-23T08:35:14.985Z,97528.53
2022-12-23T08:37:41.672Z,97525.16
2022-12-23T08:40:08.666Z,97528.72
2022-12-23T08:42:35.298Z,97519.84
2022-12-23T08:45:02.441Z,97516.91
2022-12-23T08:47:29.075Z,97520.28
2022-12-23T08:49:55.742Z,97520.84
2022-12-23T08:52:22.422Z,97523.03
2022-12-23T08:54:49.091Z,97528.06
2022-12-23T08:57:15.738Z,97531.41
2022-12-23T08:59:42.421Z,97524.16
2022-12-23T09:02:10.126Z,97523.81
2022-12-23T09:04:37.003Z,97525.47
2022-12-23T09:07:03.651Z,97521.66
2022-12-23T09:09:30.323Z,97507.81
2022-12-23T09:11:56.949Z,97503.72
2022-12-23T09:14:23.603Z,97501.44
2022-12-23T09:16:51.033Z,97501.87
2022-12-23T09:19:17.684Z,97511.75
2022-12-23T09:21:44.373Z,97520.03
2022-12-23T09:24:11.045Z,97517.03
2022-12-23T09:26:37.739Z,97527.56
2022-12-23T09:29:04.465Z,97521.72
2022-12-23T09:31:36.508Z,97523.78
2022-12-23T09:34:03.737Z,97519.47
2022-12-23T09:36:30.561Z,97510.47
2022-12-23T09:38:57.654Z,97513.16
2022-12-23T09:41:30.326Z,97512.03
2022-12-23T09:44:15.423Z,97516.37
2022-12-23T09:46:45.375Z,97511.84
2022-12-23T09:49:12.930Z,97502.56
2022-12-23T09:51:39.600Z,97486.37
2022-12-23T09:54:19.932Z,97492.78
2022-12-23T09:56:52.597Z,97486.37
2022-12-23T09:59:22.389Z,97479.84
2022-12-23T10:01:51.022Z,97489.50
2022-12-23T10:04:23.576Z,97488.72
2022-12-23T10:06:59.334Z,97489.97
2022-12-23T10:09:29.705Z,97485.81
2022-12-23T10:11:57.262Z,97482.59
2022-12-23T10:14:24.800Z,97484.06
2022-12-23T10:16:55.757Z,97487.31
2022-12-23T10:19:25.496Z,97482.69
2022-12-23T10:21:53.068Z,97475.56
2022-12-23T10:24:23.712Z,97466.88
2022-12-23T10:26:50.332Z,97460.31
2022-12-23T10:29:19.258Z,97459.50
2022-12-23T10:31:46.796Z,97451.84
2022-12-23T10:34:23.691Z,97457.06
2022-12-23T10:37:00.544Z,97462.16
2022-12-23T10:39:27.297Z,97446.72
2022-12-23T10:41:53.918Z,97452.75
2022-12-23T10:44:20.555Z,97454.38
2022-12-23T10:46:47.228Z,97450.47
2022-12-23T10:49:20.869Z,97448.91
2022-12-23T10:51:55.003Z,97448.31
2022-12-23T10:54:23.984Z,97442.66
2022-12-23T10:56:50.673Z,97453.22
2022-12-23T10:59:19.454Z,97446.38
2022-12-23T11:01:47.758Z,97445.09
2022-12-23T11:04:14.823Z,97444.81
2022-12-23T11:06:42.814Z,97445.09
2022-12-23T11:09:19.924Z,97421.19
2022-12-23T11:12:02.866Z,97430.69
2022-12-23T11:14:35.867Z,97416.87
2022-12-23T11:17:03.688Z,97422.59
2022-12-23T11:19:30.374Z,97426.16
2022-12-23T11:22:00.009Z,97429.69
2022-12-23T11:24:27.967Z,97434.97
2022-12-23T11:27:01.210Z,97421.69
2022-12-23T11:29:34.930Z,97423.75
2022-12-23T11:32:02.215Z,97435.28
2022-12-23T11:34:29.603Z,97434.72
2022-12-23T11:37:01.807Z,97439.81
2022-12-23T11:39:33.078Z,97431.16
2022-12-23T11:42:05.481Z,97426.16
2022-12-23T11:44:41.902Z,97409.44
2022-12-23T11:47:18.647Z,97421.81
2022-12-23T11:49:49.763Z,97427.41
2022-12-23T11:52:18.609Z,97428.38
2022-12-23T11:54:55.853Z,97418.94
2022-12-23T11:57:33.587Z,97425.37
2022-12-23T12:00:00.880Z,97425.50
2022-12-23T12:02:42.425Z,97432.87
2022-12-23T12:05:17.551Z,97436.91
2022-12-23T12:07:44.590Z,97444.88
2022-12-23T12:10:31.845Z,97441.50
2022-12-23T12:12:59.905Z,97455.25
2022-12-23T12:15:26.863Z,97451.62
2022-12-23T12:17:53.517Z,97448.97
2022-12-23T12:20:39.191Z,97442.16
2022-12-23T12:23:17.383Z,97461.59
2022-12-23T12:25:50.737Z,97450.75
2022-12-23T12:28:20.871Z,97465.03
2022-12-23T12:30:48.932Z,97460.34
2022-12-23T12:33:15.590Z,97455.50
2022-12-23T12:35:43.939Z,97469.50
2022-12-23T12:38:16.614Z,97466.56
2022-12-23T12:40:45.352Z,97465.22
2022-12-23T12:43:16.349Z,97458.81
2022-12-23T12:45:51.955Z,97467.31
2022-12-23T12:48:39.122Z,97473.13
2022-12-23T12:51:09.778Z,97474.78
2022-12-23T12:53:36.514Z,97479.03
2022-12-23T12:56:06.875Z,97472.63
2022-12-23T12:58:33.519Z,97469.47
2022-12-23T13:01:00.223Z,97487.06
2022-12-23T13:03:32.060Z,97481.13
2022-12-23T13:06:01.687Z,97487.75
2022-12-23T13:08:43.715Z,97493.63
2022-12-23T13:11:13.500Z,97487.50
2022-12-23T13:13:43.464Z,97491.53
2022-12-23T13:16:26.390Z,97487.25
2022-12-23T13:19:11.507Z,97493.78
2022-12-23T13:21:41.079Z,97493.84
2022-12-23T13:24:20.668Z,97496.75
2022-12-23T13:27:00.689Z,97501.06
2022-12-23T13:29:32.155Z,97496.19
2022-12-23T13:32:19.011Z,97499.09
2022-12-23T13:34:49.707Z,97498.47
2022-12-23T13:37:45.730Z,97501.22
2022-12-23T13:40:17.972Z,97496.03
2022-12-23T13:42:46.357Z,97494.06
2022-12-23T13:45:13.753Z,97500.50
2022-12-23T13:47:43.437Z,97504.12
2022-12-23T13:50:10.139Z,97501.87
2022-12-23T13:52:43.957Z,97497.88
2022-12-23T13:55:27.554Z,97506.34
2022-12-23T13:57:58.931Z,97493.19
2022-12-23T14:00:27.292Z,97508.00
2022-12-23T14:03:02.259Z,97513.66
2022-12-23T14:05:29.083Z,97502.75
2022-12-23T14:07:55.960Z,97505.62
2022-12-23T14:10:23.339Z,97502.25
2022-12-23T14:12:50.479Z,97506.19
2022-12-23T14:15:29.466Z,97500.41
2022-12-23T14:18:04.602Z,97488.72
2022-12-23T14:20:34.364Z,97492.66
2022-12-23T14:23:04.176Z,97503.47
2022-12-23T14:25:33.744Z,97501.31
2022-12-23T14:28:00.412Z,97490.88
2022-12-23T14:30:27.088Z,97514.25
2022-12-23T14:32:54.281Z,97511.66
2022-12-23T14:35:28.324Z,97514.63
2022-12-23T14:38:05.554Z,97518.19
2022-12-23T14:40:38.381Z,97508.63
2022-12-23T14:43:31.631Z,97510.47
2022-12-23T14:46:02.001Z,97518.44
2022-12-23T14:48:34.667Z,97515.16
2022-12-23T14:51:10.471Z,97522.72
2022-12-23T14:53:37.966Z,97514.59
2022-12-23T14:56:36.945Z,97527.25
2022-12-23T14:59:15.588Z,97528.91
2022-12-23T15:01:48.268Z,97540.75
2022-12-23T15:04:14.976Z,97517.88
2022-12-23T15:06:42.553Z,97519.59
2022-12-23T15:09:10.417Z,97509.59
2022-12-23T15:11:37.566Z,97515.25
2022-12-23T15:14:05.183Z,97511.94
2022-12-23T15:16:36.523Z,97530.56
2022-12-23T15:19:13.218Z,97542.06
2022-12-23T15:21:39.868Z,97551.59
2022-12-23T15:24:09.320Z,97566.03
2022-12-23T15:26:36.083Z,97560.84
2022-12-23T15:29:03.531Z,97557.69
2022-12-23T15:31:35.401Z,97562.53
2022-12-23T15:34:06.110Z,97562.28
2022-12-23T15:36:37.538Z,97558.50
2022-12-23T15:39:08.438Z,97548.03
2022-12-23T15:41:41.329Z,97551.75
2022-12-23T15:44:09.823Z,97557.25
2022-12-23T15:46:38.967Z,97552.84
2022-12-23T15:49:06.821Z,97539.28
2022-12-23T15:52:05.669Z,97551.59
2022-12-23T15:54:21.803Z,97555.72
2022-12-23T15:56:49.575Z,97526.50
2022-12-23T15:59:24.217Z,97516.50
2022-12-23T16:01:51.119Z,97511.19
2022-12-23T16:04:24.895Z,97511.03
2022-12-23T16:06:52.032Z,97511.59
2022-12-23T16:09:19.365Z,97513.50
2022-12-23T16:11:56.916Z,97531.59
2022-12-23T16:14:39.875Z,97536.38
2022-12-23T16:17:09.626Z,97520.31
2022-12-23T16:19:39.901Z,97523.94
2022-12-23T16:22:27.271Z,97523.50
2022-12-23T16:24:57.663Z,97515.06
2022-12-23T16:27:37.842Z,97519.94
2022-12-23T16:30:13.627Z,97525.25
2022-12-23T16:32:45.046Z,97537.59
2022-12-23T16:35:12.334Z,97541.41
2022-12-23T16:37:39.086Z,97540.72
2022-12-23T16:40:09.908Z,97540.41
2022-12-23T16:42:36.579Z,97540.69
2022-12-23T16:45:03.747Z,97540.09
2022-12-23T16:47:30.398Z,97532.66
2022-12-23T16:49:57.071Z,97532.19
2022-12-23T16:52:23.795Z,97532.72
2022-12-23T16:54:50.439Z,97522.28
2022-12-23T16:57:17.052Z,97517.25
2022-12-23T16:59:43.725Z,97517.63
2022-12-23T17:02:17.047Z,97515.09
2022-12-23T17:04:43.816Z,97534.50
2022-12-23T17:07:12.059Z,97546.25
2022-12-23T17:09:38.718Z,97541.88
2022-12-23T17:12:05.919Z,97540.53
2022-12-23T17:14:32.595Z,97544.97
2022-12-23T17:16:59.357Z,97544.06
2022-12-23T17:19:29.015Z,97541.50
2022-12-23T17:21:58.213Z,97538.94
2022-12-23T17:24:25.649Z,97544.03
2022-12-23T17:26:52.777Z,97539.91
2022-12-23T17:29:19.600Z,97532.59
2022-12-23T17:31:47.143Z,97530.19
2022-12-23T17:34:14.920Z,97525.75
2022-12-23T17:36:47.616Z,97523.87
2022-12-23T17:39:16.374Z,97528.47
2022-12-23T17:41:43.061Z,97530.00
2022-12-23T17:44:10.522Z,97527.62
2022-12-23T17:46:37.155Z,97530.78
2022-12-23T17:49:03.918Z,97531.72
2022-12-23T17:51:30.591Z,97531.22
2022-12-23T17:53:58.303Z,97534.28
2022-12-23T17:56:26.053Z,97543.88
2022-12-23T17:58:52.932Z,97533.53
2022-12-23T18:01:21.166Z,97525.75
2022-12-23T18:03:47.903Z,97529.41
2022-12-23T18:06:15.419Z,97526.50
2022-12-23T18:08:42.167Z,97512.28
2022-12-23T18:11:09.119Z,97513.19
2022-12-23T18:13:35.991Z,97511.56
2022-12-23T18:16:02.678Z,97510.53
2022-12-23T18:18:41.788Z,97506.16
2022-12-23T18:21:14.012Z,97504.00
2022-12-23T18:23:40.724Z,97495.09
2022-12-23T18:26:07.399Z,97498.16
2022-12-23T18:28:34.061Z,97505.44
2022-12-23T18:31:00.771Z,97510.75
2022-12-23T18:33:29.547Z,97513.81
2022-12-23T18:35:56.382Z,97503.97
2022-12-23T18:38:23.157Z,97505.38
2022-12-23T18:40:52.606Z,97512.09
2022-12-23T18:43:20.512Z,97518.97
2022-12-23T18:45:52.430Z,97517.31
2022-12-23T18:48:19.701Z,97526.16
2022-12-23T18:50:46.933Z,97524.28
2022-12-23T18:53:23.390Z,97529.81
2022-12-23T18:55:50.911Z,97526.59
2022-12-23T18:58:18.182Z,97523.78
2022-12-23T19:00:44.991Z,97528.94
2022-12-23T19:03:18.932Z,97524.44
2022-12-23T19:05:46.717Z,97531.37
2022-12-23T19:08:13.373Z,97526.25
2022-12-23T19:10:40.100Z,97525.97
2022-12-23T19:13:06.732Z,97522.84
2022-12-23T19:15:33.428Z,97519.81
2022-12-23T19:18:00.122Z,97524.25
2022-12-23T19:20:26.808Z,97522.69
2022-12-23T19:22:53.466Z,97523.50
2022-12-23T19:25:20.241Z,97523.72
2022-12-23T19:27:46.875Z,97517.59
2022-12-23T19:30:16.645Z,97518.13
2022-12-23T19:32:43.495Z,97512.91
2022-12-23T19:35:12.525Z,97515.13
2022-12-23T19:37:39.159Z,97511.47
2022-12-23T19:40:06.389Z,97511.47
2022-12-23T19:42:34.091Z,97518.38
2022-12-23T19:45:01.083Z,97521.44
2022-12-23T19:47:27.739Z,97516.25
2022-12-23T19:49:54.403Z,97514.28
2022-12-23T19:52:21.081Z,97513.97
2022-12-23T19:54:47.813Z,97520.25
2022-12-23T19:57:14.460Z,97521.41
2022-12-23T19:59:41.115Z,97523.03
2022-12-23T20:02:09.236Z,97517.06
2022-12-23T20:04:35.924Z,97517.06
2022-12-23T20:07:02.567Z,97520.22
2022-12-23T20:09:29.204Z,97517.34
2022-12-23T20:11:55.859Z,97512.06
2022-12-23T20:14:22.568Z,97515.34
2022-12-23T20:16:49.549Z,97506.97
2022-12-23T20:19:16.496Z,97512.88
2022-12-23T20:21:43.154Z,97504.91
2022-12-23T20:24:09.836Z,97497.09
2022-12-23T20:26:36.504Z,97498.94
2022-12-23T20:29:03.158Z,97491.06
2022-12-23T20:31:30.713Z,97492.66
2022-12-23T20:33:57.625Z,97492.44
2022-12-23T20:36:25.664Z,97493.81
2022-12-23T20:38:52.537Z,97484.63
2022-12-23T20:41:21.073Z,97481.28
2022-12-23T20:44:02.883Z,97487.50
2022-12-23T20:46:34.604Z,97483.03
2022-12-23T20:49:01.297Z,97477.34
2022-12-23T20:51:27.956Z,97479.72
2022-12-23T20:53:55.604Z,97481.03
2022-12-23T20:56:22.566Z,97477.47
2022-12-23T20:58:55.265Z,97483.75
2022-12-23T21:01:22.409Z,97467.59
2022-12-23T21:03:49.065Z,97476.41
2022-12-23T21:06:15.728Z,97476.06
2022-12-23T21:08:43.450Z,97472.16
2022-12-23T21:11:10.392Z,97472.41
2022-12-23T21:13:38.198Z,97458.13
2022-12-23T21:16:05.930Z,97458.59
2022-12-23T21:18:33.215Z,97450.34
2022-12-23T21:21:00.332Z,97443.66
2022-12-23T21:23:27.459Z,97435.84
2022-12-23T21:26:14.385Z,97424.91
2022-12-23T21:28:41.419Z,97430.81
2022-12-23T21:31:08.391Z,97430.81
2022-12-23T21:33:36.073Z,97429.88
2022-12-23T21:36:02.837Z,97436.03
2022-12-23T21:38:33.546Z,97430.53
2022-12-23T21:41:00.920Z,97421.66
2022-12-23T21:43:27.554Z,97420.91
2022-12-23T21:46:01.120Z,97424.22
2022-12-23T21:48:27.911Z,97425.25
2022-12-23T21:50:54.577Z,97425.56
2022-12-23T21:53:21.289Z,97422.00
2022-12-23T21:55:47.976Z,97417.06
2022-12-23T21:58:14.625Z,97414.47
2022-12-23T22:00:41.280Z,97411.44
2022-12-23T22:03:07.963Z,97414.41
2022-12-23T22:05:34.585Z,97411.63
2022-12-23T22:08:01.586Z,97416.19
2022-12-23T22:10:28.301Z,97421.88
2022-12-23T22:12:55.042Z,97419.75
2022-12-23T22:15:21.795Z,97413.75
2022-12-23T22:17:48.809Z,97417.31
2022-12-23T22:20:15.446Z,97417.09
2022-12-23T22:22:42.067Z,97419.28
2022-12-23T22:25:08.956Z,97410.78
2022-12-23T22:27:35.635Z,97405.62
2022-12-23T22:30:02.356Z,97394.16
2022-12-23T22:32:29.018Z,97389.59
2022-12-23T22:34:55.658Z,97384.84
2022-12-23T22:37:22.301Z,97368.97
2022-12-23T22:39:49.055Z,97350.56
2022-12-23T22:42:15.799Z,97343.53
2022-12-23T22:44:42.412Z,97360.78
2022-12-23T22:47:09.268Z,97351.47
2022-12-23T22:49:36.059Z,97361.63
2022-12-23T22:52:02.776Z,97351.28
2022-12-23T22:54:29.560Z,97347.53
2022-12-23T22:56:56.191Z,97365.63
2022-12-23T22:59:23.697Z,97366.47
2022-12-23T23:01:50.912Z,97373.34
2022-12-23T23:04:17.710Z,97367.53
2022-12-23T23:06:44.426Z,97378.25
2022-12-23T23:09:14.983Z,97373.91
2022-12-23T23:11:41.895Z,97380.78
2022-12-23T23:14:08.544Z,97376.69
2022-12-23T23:16:35.379Z,97356.03
2022-12-23T23:19:02.152Z,97350.03
2022-12-23T23:21:28.851Z,97342.88
2022-12-23T23:23:55.514Z,97346.09
2022-12-23T23:26:26.796Z,97342.06
2022-12-23T23:28:53.884Z,97337.44
2022-12-23T23:34:07.193Z,97331.41
2022-12-23T23:36:34.086Z,97348.75
2022-12-23T23:39:00.836Z,97353.28
2022-12-23T23:41:27.606Z,97345.41
2022-12-23T23:43:54.282Z,97353.22
2022-12-23T23:46:21.009Z,97361.09
2022-12-23T23:48:48.011Z,97373.84
2022-12-23T23:51:14.688Z,97369.91
2022-12-23T23:53:41.327Z,97361.81
2022-12-23T23:56:08.470Z,97362.56
2022-12-23T23:58:35.467Z,97350.50
